Time;durP1;ratioP1;P1;durP2;ratioP2;P2;SDS_P1;SDS_P2;PMS_P1;PMS_P2;Temp;Humidity;BMP_temperature;BMP_pressure;BME280_temperature;BME280_humidity;BME280_pressure;Samples;Min_cycle;Max_cycle;Signal;HPM_P1;HPM_P2
2021/05/14 00:01:14;;;;;;;13.23;9.82;;;;;;;12.29;81.49;100686.97;5033780;28;20466;-54
2021/05/14 00:03:41;;;;;;;14.05;10.50;;;;;;;12.33;80.89;100691.06;5032646;28;20107;-53
2021/05/14 00:06:08;;;;;;;13.25;10.00;;;;;;;12.28;81.85;100690.56;5033545;28;20057;-52
2021/05/14 00:08:35;;;;;;;13.75;10.20;;;;;;;12.31;82.16;100692.97;5033585;28;20847;-54
2021/05/14 00:11:01;;;;;;;12.40;9.73;;;;;;;12.34;81.83;100689.28;5033762;28;20049;-55
2021/05/14 00:13:28;;;;;;;15.45;10.45;;;;;;;12.37;81.62;100683.78;5014145;28;20107;-56
2021/05/14 00:15:55;;;;;;;13.40;9.85;;;;;;;12.30;81.71;100682.56;5033376;28;20053;-51
2021/05/14 00:18:21;;;;;;;13.68;10.20;;;;;;;12.28;82.72;100682.66;5033278;28;20049;-53
2021/05/14 00:20:48;;;;;;;13.50;10.50;;;;;;;12.31;82.40;100678.94;5033203;28;20045;-54
2021/05/14 00:23:16;;;;;;;13.30;9.93;;;;;;;12.39;82.55;100679.19;5032618;28;20449;-52
2021/05/14 00:25:43;;;;;;;13.57;10.43;;;;;;;12.33;81.81;100672.59;5031649;28;20038;-54
2021/05/14 00:28:10;;;;;;;15.05;11.00;;;;;;;12.27;82.59;100667.81;5030893;28;20513;-53
2021/05/14 00:30:38;;;;;;;14.15;10.32;;;;;;;12.30;82.17;100672.00;5032016;28;20050;-54
2021/05/14 00:33:05;;;;;;;13.50;10.82;;;;;;;12.26;82.99;100668.75;5033384;28;20428;-54
2021/05/14 00:35:32;;;;;;;14.27;10.98;;;;;;;12.30;82.61;100672.84;5033768;28;20064;-49
2021/05/14 00:37:58;;;;;;;13.32;10.07;;;;;;;12.27;81.96;100673.06;5030978;28;20053;-46
2021/05/14 00:40:25;;;;;;;12.65;10.48;;;;;;;12.25;82.16;100669.69;5015179;28;20067;-48
2021/05/14 00:42:52;;;;;;;15.70;11.30;;;;;;;12.28;81.75;100669.47;5029901;28;20053;-47
2021/05/14 00:45:19;;;;;;;12.98;9.90;;;;;;;12.31;81.73;100669.25;5032511;28;20057;-49
2021/05/14 00:47:46;;;;;;;13.93;10.27;;;;;;;12.27;81.39;100662.53;5031819;28;20427;-49
2021/05/14 00:50:13;;;;;;;14.13;10.95;;;;;;;12.29;80.59;100663.25;5033365;28;20046;-51
2021/05/14 00:52:41;;;;;;;13.45;10.98;;;;;;;12.12;81.45;100671.56;5031090;28;20064;-47
2021/05/14 00:55:08;;;;;;;14.90;11.07;;;;;;;12.08;81.63;100672.75;5015274;28;20053;-50
2021/05/14 00:57:36;;;;;;;15.77;12.05;;;;;;;12.07;81.61;100671.91;5031365;28;20061;-47
2021/05/14 01:00:05;;;;;;;15.32;10.68;;;;;;;12.04;82.43;100676.56;5030179;28;20060;-55
2021/05/14 01:02:31;;;;;;;15.93;11.32;;;;;;;12.10;82.46;100670.84;5015240;28;20338;-53
2021/05/14 01:04:58;;;;;;;15.02;11.32;;;;;;;12.04;83.02;100666.03;5032903;28;20524;-53
2021/05/14 01:07:25;;;;;;;15.00;11.38;;;;;;;12.02;82.36;100668.78;5032490;28;20129;-53
2021/05/14 01:09:52;;;;;;;15.32;11.80;;;;;;;11.96;83.10;100666.59;5064143;28;20056;-54
2021/05/14 01:12:19;;;;;;;15.82;12.40;;;;;;;11.90;83.79;100664.38;5015348;28;20503;-53
2021/05/14 01:14:46;;;;;;;17.42;13.02;;;;;;;11.88;83.58;100672.41;5030621;28;20064;-54
2021/05/14 01:17:12;;;;;;;18.85;13.77;;;;;;;11.91;83.89;100668.72;5032442;28;20485;-53
2021/05/14 01:19:39;;;;;;;17.38;14.02;;;;;;;11.89;83.61;100660.91;5032505;28;20077;-53
2021/05/14 01:22:07;;;;;;;19.67;14.25;;;;;;;11.93;83.62;100665.00;5032519;28;20049;-54
2021/05/14 01:24:34;;;;;;;18.45;14.35;;;;;;;11.88;83.82;100661.88;5031931;28;20041;-54
2021/05/14 01:27:01;;;;;;;19.63;14.38;;;;;;;11.91;83.81;100661.63;5030967;28;20056;-54
2021/05/14 01:29:28;;;;;;;18.80;14.52;;;;;;;11.96;83.54;100664.81;5028593;28;20057;-51
2021/05/14 01:31:55;;;;;;;17.70;14.25;;;;;;;11.96;83.83;100656.91;5030951;28;20107;-54
2021/05/14 01:34:23;;;;;;;20.75;14.77;;;;;;;11.88;84.33;100656.59;5032438;28;20484;-55
2021/05/14 01:36:49;;;;;;;19.55;15.95;;;;;;;11.80;83.72;100649.25;5030718;28;20527;-47
2021/05/14 01:39:22;;;;;;;21.00;15.13;;;;;;;11.80;83.39;100653.69;5031531;28;20099;-51
2021/05/14 01:41:49;;;;;;;25.90;16.30;;;;;;;11.82;83.52;100652.63;5015268;28;20057;-51
2021/05/14 01:44:16;;;;;;;20.90;15.68;;;;;;;11.81;84.50;100655.38;5028428;28;20053;-49
2021/05/14 01:46:43;;;;;;;20.35;15.68;;;;;;;11.90;83.65;100659.97;5030884;28;20453;-53
2021/05/14 01:49:10;;;;;;;19.88;16.00;;;;;;;11.93;83.15;100657.09;5030809;28;20061;-49
2021/05/14 01:51:36;;;;;;;22.65;15.60;;;;;;;11.90;83.78;100653.84;5031409;28;20040;-52
2021/05/14 01:54:04;;;;;;;22.20;16.05;;;;;;;11.87;83.94;100651.44;5031715;28;20503;-49
2021/05/14 01:56:31;;;;;;;23.20;16.45;;;;;;;11.86;84.45;100655.03;5031513;28;20493;-54
2021/05/14 01:59:01;;;;;;;23.45;17.20;;;;;;;11.81;84.61;100660.63;5028681;28;20520;-54
2021/05/14 02:01:28;;;;;;;22.80;16.92;;;;;;;11.80;84.81;100654.50;5031636;28;20091;-54
2021/05/14 02:03:55;;;;;;;23.92;18.10;;;;;;;11.75;85.21;100648.75;5031704;28;20041;-49
2021/05/14 02:06:22;;;;;;;23.10;16.48;;;;;;;11.80;84.35;100651.06;5031533;28;20068;-48
2021/05/14 02:08:50;;;;;;;23.33;17.98;;;;;;;11.78;84.16;100658.22;5030618;28;20060;-52
2021/05/14 02:11:17;;;;;;;22.83;16.83;;;;;;;11.79;84.23;100658.13;5031669;28;20111;-53
2021/05/14 02:13:44;;;;;;;25.33;17.35;;;;;;;11.73;83.96;100658.56;5027911;28;20045;-54
2021/05/14 02:16:11;;;;;;;25.50;18.50;;;;;;;11.73;84.44;100663.00;5031167;28;20492;-53
2021/05/14 02:18:39;;;;;;;27.65;19.55;;;;;;;11.75;84.12;100666.34;5030946;28;20136;-53
2021/05/14 02:21:07;;;;;;;29.20;20.85;;;;;;;11.73;83.76;100657.72;5030155;28;20136;-53
2021/05/14 02:23:34;;;;;;;27.27;20.33;;;;;;;11.66;84.56;100663.44;5030061;28;20490;-50
2021/05/14 02:26:01;;;;;;;28.00;20.33;;;;;;;11.70;83.98;100663.19;5030990;28;20037;-51
2021/05/14 02:28:28;;;;;;;27.83;20.52;;;;;;;11.70;84.25;100663.19;5027300;28;20518;-47
2021/05/14 02:30:55;;;;;;;30.48;21.67;;;;;;;11.71;83.63;100665.75;5030971;28;20071;-53
2021/05/14 02:33:22;;;;;;;30.63;21.67;;;;;;;11.70;83.41;100663.19;5029908;28;20049;-54
2021/05/14 02:35:49;;;;;;;31.52;22.67;;;;;;;11.66;83.80;100659.97;5029794;28;20041;-55
2021/05/14 02:38:15;;;;;;;29.13;20.70;;;;;;;11.58;83.83;100655.25;5030193;28;20052;-54
2021/05/14 02:40:42;;;;;;;30.42;22.33;;;;;;;11.62;84.41;100661.97;5030941;28;20562;-54
2021/05/14 02:43:09;;;;;;;30.15;21.70;;;;;;;11.64;84.11;100653.94;5028972;28;20076;-52
2021/05/14 02:45:36;;;;;;;31.08;21.58;;;;;;;11.59;84.18;100656.94;5030884;28;20037;-54
2021/05/14 02:48:04;;;;;;;30.17;22.73;;;;;;;11.53;84.17;100660.00;5013033;28;20132;-53
2021/05/14 02:50:31;;;;;;;29.48;21.75;;;;;;;11.51;84.22;100664.53;5046562;28;20059;-51
2021/05/14 02:52:58;;;;;;;31.23;22.38;;;;;;;11.53;84.46;100664.44;5030290;28;20057;-54
2021/05/14 02:55:25;;;;;;;29.63;21.05;;;;;;;11.56;84.44;100665.06;5062496;28;20318;-54
2021/05/14 02:57:53;;;;;;;28.17;20.85;;;;;;;11.58;84.44;100665.78;5027372;28;20814;-54
2021/05/14 03:00:22;;;;;;;30.95;22.75;;;;;;;11.54;84.88;100663.50;5029992;28;20057;-52
2021/05/14 03:02:49;;;;;;;30.55;21.80;;;;;;;11.54;84.21;100652.94;5028961;28;20581;-50
2021/05/14 03:05:16;;;;;;;31.42;21.85;;;;;;;11.51;84.03;100654.00;5030552;28;20052;-54
2021/05/14 03:07:43;;;;;;;33.72;23.23;;;;;;;11.49;84.47;100655.91;5030141;28;20050;-53
2021/05/14 03:10:11;;;;;;;30.52;21.92;;;;;;;11.40;85.29;100659.19;5029104;28;20392;-47
2021/05/14 03:12:38;;;;;;;31.45;23.27;;;;;;;11.39;84.96;100654.91;5028073;28;20037;-52
2021/05/14 03:15:06;;;;;;;30.33;22.08;;;;;;;11.34;84.67;100649.94;5029717;28;20045;-47
2021/05/14 03:17:34;;;;;;;28.52;22.08;;;;;;;11.31;85.33;100658.91;5029334;28;20459;-54
2021/05/14 03:20:01;;;;;;;29.38;22.55;;;;;;;11.39;85.06;100657.53;5030330;28;20046;-48
2021/05/14 03:22:27;;;;;;;34.15;22.48;;;;;;;11.36;84.54;100650.69;5029033;28;20115;-53
2021/05/14 03:24:54;;;;;;;31.60;22.27;;;;;;;11.30;84.53;100656.38;5030201;28;20124;-50
2021/05/14 03:27:22;;;;;;;31.27;21.90;;;;;;;11.27;84.92;100657.44;5029799;28;20053;-49
2021/05/14 03:29:48;;;;;;;29.58;20.73;;;;;;;11.23;85.02;100658.59;5026869;28;20055;-51
2021/05/14 03:32:15;;;;;;;31.15;21.60;;;;;;;11.18;84.80;100658.09;5029133;28;20056;-53
2021/05/14 03:34:42;;;;;;;30.65;21.80;;;;;;;11.16;84.89;100660.00;5029287;28;20049;-48
2021/05/14 03:37:09;;;;;;;30.27;21.80;;;;;;;11.15;85.52;100659.16;5028694;28;20103;-50
2021/05/14 03:39:44;;;;;;;28.85;21.35;;;;;;;11.15;85.63;100658.31;5028653;28;20073;-51
2021/05/14 03:42:23;;;;;;;29.00;20.98;;;;;;;11.05;85.31;100660.75;5030612;28;20051;-52
2021/05/14 03:44:54;;;;;;;32.22;22.23;;;;;;;11.06;85.33;100661.59;5028744;28;20459;-52
2021/05/14 03:47:24;;;;;;;31.40;20.95;;;;;;;11.01;85.41;100672.44;5028740;28;20058;-47
2021/05/14 03:49:51;;;;;;;29.67;21.08;;;;;;;11.01;85.63;100666.34;5029058;28;20053;-53
2021/05/14 03:52:18;;;;;;;29.65;20.77;;;;;;;10.92;85.47;100665.16;5029224;28;20140;-53
2021/05/14 03:54:45;;;;;;;34.58;21.90;;;;;;;10.97;85.41;100665.69;5030659;28;20357;-54
2021/05/14 03:57:13;;;;;;;30.92;21.05;;;;;;;10.92;86.07;100663.41;5030110;28;20048;-53
2021/05/14 03:59:40;;;;;;;31.27;22.05;;;;;;;10.94;86.08;100666.75;5027532;28;20053;-52
2021/05/14 04:02:09;;;;;;;30.33;21.40;;;;;;;10.96;85.99;100664.00;5028981;28;20060;-51
2021/05/14 04:04:36;;;;;;;32.47;21.83;;;;;;;10.96;86.47;100664.88;5028857;28;20046;-53
2021/05/14 04:07:04;;;;;;;30.92;22.15;;;;;;;10.97;87.03;100653.38;5028467;28;20396;-55
2021/05/14 04:09:34;;;;;;;30.77;21.92;;;;;;;11.01;86.84;100664.53;5030866;28;20100;-55
2021/05/14 04:14:37;;;;;;;36.88;24.25;;;;;;;11.03;86.50;100673.19;5028646;28;20397;-54
2021/05/14 04:17:11;;;;;;;38.33;24.13;;;;;;;11.05;86.62;100658.13;5032279;28;20505;-53
2021/05/14 04:19:37;;;;;;;41.53;25.42;;;;;;;11.06;87.32;100665.06;5033446;28;20053;-54
2021/05/14 04:22:06;;;;;;;38.40;24.98;;;;;;;11.08;86.99;100672.84;5033562;28;20467;-52
2021/05/14 04:24:33;;;;;;;44.28;26.15;;;;;;;11.03;87.08;100678.44;5031573;28;20065;-51
2021/05/14 04:27:00;;;;;;;40.58;23.73;;;;;;;11.10;87.26;100666.53;5033536;28;20054;-53
2021/05/14 04:29:27;;;;;;;37.75;24.50;;;;;;;11.12;86.77;100669.88;5030832;28;20045;-53
2021/05/14 04:31:53;;;;;;;36.58;24.00;;;;;;;11.12;86.51;100667.25;5033271;28;20052;-52
2021/05/14 04:34:21;;;;;;;38.63;23.83;;;;;;;11.15;87.16;100674.09;5031976;28;20095;-51
2021/05/14 04:36:54;;;;;;;38.70;24.13;;;;;;;11.15;87.48;100672.31;5032224;28;20045;-51
2021/05/14 04:39:21;;;;;;;38.13;23.60;;;;;;;11.11;86.65;100664.72;5031429;28;20152;-53
2021/05/14 04:41:48;;;;;;;35.85;22.65;;;;;;;11.13;86.89;100676.00;5032703;28;20428;-52
2021/05/14 04:44:16;;;;;;;39.05;24.55;;;;;;;11.15;86.74;100668.81;5062751;28;20041;-53
2021/05/14 04:46:44;;;;;;;36.53;22.92;;;;;;;11.21;86.63;100673.69;5032840;28;20042;-52
2021/05/14 04:49:11;;;;;;;37.13;23.83;;;;;;;11.24;86.10;100668.19;5033093;28;20046;-49
2021/05/14 04:51:38;;;;;;;36.80;23.83;;;;;;;11.28;86.77;100668.81;5032677;28;20040;-52
2021/05/14 04:54:05;;;;;;;36.70;22.38;;;;;;;11.35;85.82;100671.88;5032812;28;20776;-51
2021/05/14 04:56:32;;;;;;;37.40;23.23;;;;;;;11.38;86.46;100674.28;5031802;28;20045;-51
2021/05/14 04:58:59;;;;;;;37.03;24.40;;;;;;;11.38;85.79;100671.63;5028801;28;20049;-53
2021/05/14 05:01:26;;;;;;;41.45;23.10;;;;;;;11.39;85.85;100668.88;5032780;28;20045;-54
2021/05/14 05:03:54;;;;;;;34.42;23.10;;;;;;;11.42;85.61;100673.09;5031588;28;20041;-51
2021/05/14 05:06:21;;;;;;;25.42;16.85;;;;;;;11.42;84.21;100675.72;5032188;28;20033;-53
2021/05/14 05:08:49;;;;;;;20.17;14.20;;;;;;;11.46;83.35;100677.19;5031912;28;20077;-50
2021/05/14 05:11:16;;;;;;;19.05;12.40;;;;;;;11.39;82.34;100682.06;5032224;28;20049;-48
2021/05/14 05:13:43;;;;;;;19.73;13.20;;;;;;;11.38;82.01;100690.91;5028774;28;20049;-50
2021/05/14 05:16:10;;;;;;;19.00;12.50;;;;;;;11.28;81.42;100685.44;5031866;28;20045;-52
2021/05/14 05:18:37;;;;;;;16.95;12.10;;;;;;;11.28;81.49;100689.88;5031915;28;20055;-50
2021/05/14 05:21:04;;;;;;;18.20;12.93;;;;;;;11.30;81.64;100696.72;5031675;28;20050;-49
2021/05/14 05:23:31;;;;;;;20.33;11.90;;;;;;;11.23;81.51;100695.44;5031657;28;20051;-51
2021/05/14 05:25:58;;;;;;;18.88;12.43;;;;;;;11.28;81.01;100701.25;5030230;28;20524;-49
2021/05/14 05:28:26;;;;;;;17.08;12.35;;;;;;;11.29;81.61;100688.94;5029327;28;20045;-50
2021/05/14 05:30:53;;;;;;;20.33;12.95;;;;;;;11.29;80.66;100691.56;5030780;28;20053;-52
2021/05/14 05:33:24;;;;;;;19.05;13.27;;;;;;;11.37;81.85;100697.13;5032240;28;20381;-50
2021/05/14 05:35:52;;;;;;;19.52;11.98;;;;;;;11.26;81.12;100711.06;5031609;28;20143;-51
2021/05/14 05:38:21;;;;;;;20.80;13.40;;;;;;;11.25;80.84;100695.38;5031459;28;20049;-47
2021/05/14 05:40:50;;;;;;;21.13;13.63;;;;;;;11.31;80.91;100693.13;5031670;28;20037;-51
2021/05/14 05:43:17;;;;;;;22.17;14.02;;;;;;;11.33;81.12;100700.94;5029699;28;20052;-52
2021/05/14 05:45:46;;;;;;;20.75;14.02;;;;;;;11.30;80.86;100706.41;5030145;28;20049;-52
2021/05/14 05:48:13;;;;;;;20.98;14.30;;;;;;;11.32;82.11;100701.88;5032145;28;20107;-52
2021/05/14 05:50:41;;;;;;;22.85;14.02;;;;;;;11.30;82.45;100696.72;5031895;28;20049;-51
2021/05/14 05:53:09;;;;;;;20.90;13.77;;;;;;;11.24;81.98;100710.31;5029446;28;20132;-53
2021/05/14 05:55:37;;;;;;;21.92;14.48;;;;;;;11.21;81.69;100705.25;5030303;28;20669;-53
2021/05/14 05:58:08;;;;;;;21.92;14.65;;;;;;;11.37;80.84;100706.81;5028994;28;20065;-52
2021/05/14 06:00:35;;;;;;;25.55;16.23;;;;;;;11.36;81.55;100705.97;5030068;28;20045;-54
2021/05/14 06:03:02;;;;;;;24.63;16.85;;;;;;;11.41;82.47;100710.91;5030254;28;20100;-50
2021/05/14 06:05:30;;;;;;;25.40;15.88;;;;;;;11.44;82.13;100708.91;5031686;28;20080;-51
2021/05/14 06:07:57;;;;;;;25.45;15.85;;;;;;;11.50;82.82;100707.63;5012901;28;20056;-53
2021/05/14 06:10:24;;;;;;;24.83;16.55;;;;;;;11.45;82.62;100707.09;5030981;28;20045;-51
2021/05/14 06:12:52;;;;;;;20.83;15.02;;;;;;;11.38;82.20;100716.41;5029689;28;20111;-46
2021/05/14 06:15:19;;;;;;;25.23;16.90;;;;;;;11.21;82.77;100718.44;5029103;28;20069;-53
2021/05/14 06:17:46;;;;;;;21.45;14.15;;;;;;;11.30;81.95;100719.56;5030251;28;20504;-47
2021/05/14 06:20:17;;;;;;;21.45;14.75;;;;;;;11.32;80.97;100722.94;5029868;28;20115;-48
2021/05/14 06:22:43;;;;;;;19.85;13.30;;;;;;;11.43;81.44;100724.81;5031028;28;20471;-53
2021/05/14 06:25:11;;;;;;;21.63;14.32;;;;;;;11.31;80.97;100723.88;5013193;28;20044;-53
2021/05/14 06:27:38;;;;;;;20.40;14.30;;;;;;;11.29;81.66;100733.69;5029063;28;20378;-52
2021/05/14 06:30:05;;;;;;;22.08;15.18;;;;;;;11.34;81.58;100731.56;5029794;28;20081;-50
2021/05/14 06:32:33;;;;;;;20.17;14.02;;;;;;;11.38;80.57;100732.19;5031188;28;20124;-49
2021/05/14 06:35:00;;;;;;;21.85;15.07;;;;;;;11.50;80.43;100728.69;5013238;28;20429;-50
2021/05/14 06:37:30;;;;;;;20.27;13.75;;;;;;;11.59;80.78;100729.81;5029607;28;20060;-53
2021/05/14 06:39:57;;;;;;;21.13;14.25;;;;;;;11.67;81.27;100730.97;5030859;28;20765;-54
2021/05/14 06:42:24;;;;;;;18.88;13.30;;;;;;;11.84;79.82;100731.56;5029273;28;20052;-51
2021/05/14 06:44:53;;;;;;;24.30;14.68;;;;;;;11.87;79.81;100735.75;5028890;28;20055;-54
2021/05/14 06:47:20;;;;;;;21.48;14.82;;;;;;;11.80;80.71;100732.72;5030377;28;20137;-51
2021/05/14 06:49:47;;;;;;;21.23;14.57;;;;;;;11.89;81.37;100731.19;5029358;28;20045;-52
2021/05/14 06:52:14;;;;;;;22.77;14.73;;;;;;;11.93;80.93;100737.94;5030062;28;20112;-48
2021/05/14 06:54:41;;;;;;;22.25;14.70;;;;;;;12.03;80.99;100735.53;5030134;28;20132;-52
2021/05/14 06:57:09;;;;;;;22.65;15.65;;;;;;;12.05;80.47;100742.34;5029395;28;20046;-54
2021/05/14 06:59:36;;;;;;;22.13;15.32;;;;;;;12.06;79.57;100740.56;5027512;28;20065;-51
2021/05/14 07:02:03;;;;;;;22.90;15.65;;;;;;;12.09;79.92;100748.25;5029549;28;20077;-53
2021/05/14 07:04:30;;;;;;;24.92;15.82;;;;;;;12.05;80.75;100752.06;5030528;28;20049;-50
2021/05/14 07:06:57;;;;;;;24.60;15.73;;;;;;;12.07;80.97;100751.00;5028845;28;20392;-54
2021/05/14 07:09:24;;;;;;;23.67;15.88;;;;;;;11.98;79.86;100741.97;5028602;28;20149;-49
2021/05/14 07:11:51;;;;;;;26.25;15.77;;;;;;;12.05;79.21;100744.16;5030680;28;20050;-53
2021/05/14 07:14:18;;;;;;;25.48;17.20;;;;;;;12.18;79.68;100748.41;5028109;28;20053;-49
2021/05/14 07:16:45;;;;;;;25.77;16.77;;;;;;;12.24;79.42;100746.28;5028752;28;20049;-51
2021/05/14 07:19:14;;;;;;;25.65;16.23;;;;;;;12.29;79.50;100752.88;5029305;28;20443;-53
2021/05/14 07:21:41;;;;;;;24.90;16.70;;;;;;;12.29;77.60;100750.25;5030210;28;20072;-49
2021/05/14 07:24:09;;;;;;;24.75;17.05;;;;;;;12.30;77.04;100751.94;5012580;28;20053;-53
2021/05/14 07:26:36;;;;;;;26.85;17.33;;;;;;;12.37;77.37;100752.34;5029017;28;20052;-54
2021/05/14 07:29:06;;;;;;;28.27;17.95;;;;;;;12.40;77.19;100753.91;5027953;28;20548;-50
2021/05/14 07:31:33;;;;;;;24.83;15.43;;;;;;;12.56;76.81;100753.63;5030520;28;20052;-54
2021/05/14 07:34:00;;;;;;;24.88;15.52;;;;;;;12.75;78.47;100755.69;5032312;28;20104;-51
2021/05/14 07:36:27;;;;;;;24.38;16.35;;;;;;;12.83;76.89;100758.59;5033332;28;20068;-55
2021/05/14 07:38:54;;;;;;;23.67;16.67;;;;;;;12.97;76.39;100758.38;5019666;28;20053;-52
2021/05/14 07:41:21;;;;;;;24.15;16.60;;;;;;;13.02;77.81;100761.50;5038299;28;20056;-55
2021/05/14 07:43:48;;;;;;;20.30;14.07;;;;;;;13.09;75.41;100763.66;5044073;28;20048;-55
2021/05/14 07:46:15;;;;;;;22.17;15.60;;;;;;;13.19;76.22;100760.19;5031951;28;20049;-53
2021/05/14 07:48:42;;;;;;;23.90;16.88;;;;;;;13.23;74.71;100763.44;5030838;28;20111;-55
2021/05/14 07:51:09;;;;;;;23.67;16.70;;;;;;;13.16;74.21;100770.16;5033012;28;20042;-55
2021/05/14 07:53:36;;;;;;;23.75;16.83;;;;;;;13.08;74.84;100770.75;5033076;28;20444;-53
2021/05/14 07:56:04;;;;;;;26.15;17.90;;;;;;;13.24;74.85;100773.06;5032200;28;20041;-52
2021/05/14 07:58:30;;;;;;;24.13;17.58;;;;;;;13.32;72.96;100775.06;5030754;28;20057;-53
2021/05/14 08:00:57;;;;;;;25.52;17.70;;;;;;;13.38;73.89;100771.19;5032419;28;20045;-54
2021/05/14 08:03:24;;;;;;;25.90;17.77;;;;;;;13.37;73.45;100782.69;5033763;28;20554;-54
2021/05/14 08:05:51;;;;;;;25.65;18.10;;;;;;;13.41;72.86;100777.03;5033419;28;20120;-55
2021/05/14 08:08:19;;;;;;;27.25;18.63;;;;;;;13.29;72.63;100770.03;5032806;28;20175;-53
2021/05/14 08:10:46;;;;;;;26.70;19.13;;;;;;;13.34;72.11;100771.38;5048820;28;20056;-54
2021/05/14 08:13:22;;;;;;;26.73;19.20;;;;;;;13.52;71.67;100768.28;5031463;28;20133;-56
2021/05/14 08:15:49;;;;;;;28.77;20.17;;;;;;;13.65;71.47;100774.28;5032992;28;20050;-54
2021/05/14 08:18:17;;;;;;;29.75;20.77;;;;;;;13.73;70.03;100764.88;5065316;28;20055;-54
2021/05/14 08:20:45;;;;;;;26.00;19.35;;;;;;;13.84;69.41;100770.19;5032993;28;20511;-55
2021/05/14 08:23:15;;;;;;;27.88;18.48;;;;;;;13.82;69.85;100769.44;5032741;28;20057;-55
2021/05/14 08:25:42;;;;;;;25.80;18.98;;;;;;;13.96;69.40;100774.47;5032881;28;20116;-55
2021/05/14 08:28:09;;;;;;;25.85;18.27;;;;;;;13.97;68.44;100775.31;5030802;28;20071;-54
2021/05/14 08:30:38;;;;;;;27.25;18.65;;;;;;;14.17;67.31;100782.47;5047971;28;20380;-53
2021/05/14 08:33:05;;;;;;;26.58;18.65;;;;;;;14.29;67.28;100785.06;5031711;28;20045;-53
2021/05/14 08:35:34;;;;;;;24.88;18.15;;;;;;;14.35;68.60;100782.75;5032801;28;20049;-55
2021/05/14 08:38:01;;;;;;;30.38;20.25;;;;;;;14.56;65.92;100781.97;5032215;28;20045;-54
2021/05/14 08:40:28;;;;;;;28.10;19.05;;;;;;;14.58;65.56;100785.31;5032440;28;20057;-51
2021/05/14 08:42:54;;;;;;;26.30;18.48;;;;;;;14.85;67.71;100787.50;5029660;28;20061;-52
2021/05/14 08:45:22;;;;;;;23.73;17.35;;;;;;;14.97;65.82;100788.28;5014540;28;20581;-56
2021/05/14 08:47:49;;;;;;;21.85;15.93;;;;;;;15.02;64.70;100786.09;5031671;28;20037;-55
2021/05/14 08:50:16;;;;;;;21.45;15.52;;;;;;;15.01;66.58;100786.19;5031454;28;20053;-57
2021/05/14 08:52:43;;;;;;;25.38;16.63;;;;;;;15.00;64.17;100782.72;5064636;28;20548;-57
2021/05/14 08:55:13;;;;;;;22.48;16.48;;;;;;;15.14;64.54;100783.34;5032296;28;20393;-54
2021/05/14 08:57:40;;;;;;;26.95;19.17;;;;;;;15.28;65.42;100784.81;5030016;28;20160;-55
2021/05/14 09:00:09;;;;;;;25.75;17.45;;;;;;;15.37;64.01;100786.69;5030667;28;20061;-55
2021/05/14 09:02:37;;;;;;;23.40;16.25;;;;;;;15.19;63.52;100789.94;5048249;28;20045;-55
2021/05/14 09:05:23;;;;;;;25.58;17.55;;;;;;;15.07;62.76;100792.81;5031152;28;20055;-54
2021/05/14 09:07:50;;;;;;;23.90;16.17;;;;;;;15.05;63.07;100787.59;5031913;28;20057;-52
2021/05/14 09:10:18;;;;;;;24.67;16.73;;;;;;;15.21;62.14;100798.59;5032002;28;20053;-55
2021/05/14 09:12:45;;;;;;;25.35;16.33;;;;;;;15.50;62.57;100805.00;5031111;28;20041;-54
2021/05/14 09:15:33;;;;;;;25.08;16.70;;;;;;;15.74;62.13;100798.53;5030048;28;20049;-54
2021/05/14 09:18:19;;;;;;;23.67;17.20;;;;;;;15.64;60.45;100801.16;5032345;28;20050;-55
2021/05/14 09:21:00;;;;;;;23.23;16.35;;;;;;;15.87;60.30;100809.78;5031864;28;20046;-55
2021/05/14 09:23:37;;;;;;;23.25;17.05;;;;;;;15.23;60.94;100806.41;5030483;28;20057;-54
2021/05/14 09:26:13;;;;;;;24.85;17.20;;;;;;;15.51;61.17;100819.94;5030502;28;20052;-55
2021/05/14 09:28:41;;;;;;;24.27;18.35;;;;;;;15.69;60.72;100814.84;5028274;28;20045;-56
2021/05/14 09:31:18;;;;;;;24.83;17.70;;;;;;;15.95;61.24;100815.25;5030559;28;20754;-56
2021/05/14 09:33:51;;;;;;;23.70;17.25;;;;;;;15.78;58.59;100815.84;5030408;28;20053;-57
2021/05/14 09:36:29;;;;;;;26.60;17.30;;;;;;;15.74;59.71;100815.28;5030513;28;20453;-54
2021/05/14 09:38:58;;;;;;;23.98;17.40;;;;;;;15.70;59.99;100817.34;5013710;28;20045;-55
2021/05/14 09:41:33;;;;;;;25.35;18.15;;;;;;;16.10;58.62;100810.38;5030407;28;20100;-56
2021/05/14 09:44:09;;;;;;;24.40;17.98;;;;;;;15.95;58.38;100817.91;5029008;28;20262;-56
2021/05/14 09:46:44;;;;;;;27.80;19.95;;;;;;;15.79;58.82;100814.84;5031685;28;20056;-56
2021/05/14 09:49:19;;;;;;;25.55;18.10;;;;;;;16.18;58.63;100809.69;5030274;28;20049;-56
2021/05/14 09:51:55;;;;;;;24.92;17.73;;;;;;;16.34;58.96;100812.63;5031209;28;20053;-55
2021/05/14 09:54:49;;;;;;;24.95;17.83;;;;;;;16.13;56.79;100810.09;5031399;28;20457;-57
2021/05/14 09:59:58;;;;;;;23.75;17.13;;;;;;;16.51;55.84;100813.78;5029520;28;20073;-55
2021/05/14 10:02:29;;;;;;;24.20;17.17;;;;;;;16.68;55.75;100812.22;5033289;28;20063;-56
2021/05/14 10:05:01;;;;;;;24.77;17.17;;;;;;;16.95;55.22;100815.19;5045802;28;20407;-56
2021/05/14 10:07:29;;;;;;;23.08;16.83;;;;;;;17.01;53.95;100810.13;5028106;28;20037;-56
2021/05/14 10:10:00;;;;;;;23.13;16.27;;;;;;;17.30;53.64;100817.19;5035845;28;20056;-56
2021/05/14 10:12:27;;;;;;;22.65;16.63;;;;;;;17.17;52.83;100809.53;5034403;28;20041;-56
2021/05/14 10:14:57;;;;;;;24.13;16.13;;;;;;;17.15;54.35;100810.66;5029451;28;20050;-57
2021/05/14 10:17:25;;;;;;;20.15;14.75;;;;;;;17.14;51.99;100814.28;5032798;28;20053;-55
2021/05/14 10:19:53;;;;;;;23.75;15.85;;;;;;;17.46;53.53;100808.59;5034380;28;20050;-56
2021/05/14 10:22:28;;;;;;;21.92;15.73;;;;;;;17.56;50.96;100808.56;5029307;28;20053;-56
2021/05/14 10:24:59;;;;;;;19.08;13.68;;;;;;;17.62;49.76;100807.16;5032273;28;20049;-57
2021/05/14 10:27:38;;;;;;;18.90;12.90;;;;;;;17.89;49.80;100807.13;5033984;28;20124;-56
2021/05/14 10:30:06;;;;;;;18.98;13.07;;;;;;;18.09;50.12;100807.03;5037513;28;20041;-57
2021/05/14 10:32:46;;;;;;;19.65;13.02;;;;;;;17.70;50.07;100805.41;5035425;28;20388;-56
2021/05/14 10:35:24;;;;;;;17.73;12.07;;;;;;;17.36;50.74;100803.31;5030685;28;20084;-55
2021/05/14 10:37:57;;;;;;;19.42;12.55;;;;;;;17.77;51.22;100807.50;5030263;28;20495;-55
2021/05/14 10:40:30;;;;;;;17.25;12.52;;;;;;;18.08;50.48;100808.88;5030830;28;20111;-60
2021/05/14 10:43:12;;;;;;;19.55;11.80;;;;;;;18.18;48.67;100798.16;5028945;28;20072;-57
2021/05/14 10:45:41;;;;;;;15.30;9.73;;;;;;;18.60;48.59;100804.72;5012624;28;20554;-58
2021/05/14 10:48:18;;;;;;;15.32;10.68;;;;;;;18.89;46.29;100811.63;5034375;28;20048;-57
2021/05/14 10:51:06;;;;;;;14.95;10.27;;;;;;;19.02;46.01;100805.88;5012947;28;20049;-58
2021/05/14 10:53:46;;;;;;;16.80;11.10;;;;;;;19.23;47.76;100794.88;5044452;28;20383;-58
2021/05/14 10:56:13;;;;;;;15.43;10.75;;;;;;;19.24;46.36;100799.22;5040822;28;20045;-59
2021/05/14 10:59:06;;;;;;;15.57;11.13;;;;;;;19.68;46.08;100800.91;5028789;28;20132;-58
2021/05/14 11:01:36;;;;;;;19.60;11.20;;;;;;;19.47;46.79;100802.16;5045424;28;20045;-57
2021/05/14 11:04:12;;;;;;;17.15;11.05;;;;;;;19.79;46.90;100791.78;5044893;28;20553;-57
2021/05/14 11:06:45;;;;;;;35.13;11.93;;;;;;;19.80;44.79;100793.47;5041873;28;20037;-57
2021/05/14 11:09:16;;;;;;;18.45;11.00;;;;;;;19.66;45.19;100801.09;5036252;28;20095;-57
2021/05/14 11:11:57;;;;;;;25.52;10.32;;;;;;;19.79;45.29;100797.94;5032301;28;20451;-57
2021/05/14 11:14:39;;;;;;;15.73;9.48;;;;;;;20.00;44.85;100797.56;5035926;28;20095;-56
2021/05/14 11:17:13;;;;;;;13.02;8.70;;;;;;;20.00;43.79;100802.91;5036090;28;20045;-57
2021/05/14 11:19:50;;;;;;;12.70;8.50;;;;;;;20.34;43.84;100788.63;5031334;28;20081;-58
2021/05/14 11:22:23;;;;;;;13.75;9.77;;;;;;;19.90;42.58;100795.00;5033935;28;20067;-57